Time;durP1;ratioP1;P1;durP2;ratioP2;P2;SDS_P1;SDS_P2;PMS_P1;PMS_P2;Temp;Humidity;BMP_temperature;BMP_pressure;BME280_temperature;BME280_humidity;BME280_pressure;Samples;Min_cycle;Max_cycle;Signal;HPM_P1;HPM_P2
2022/03/28 00:01:47;;;;;;;32.80;16.92;;;8.70;99.90;;;;;;5034767;28;20018;-65
2022/03/28 00:04:12;;;;;;;31.65;16.73;;;8.70;99.90;;;;;;5033242;28;20144;-63
2022/03/28 00:06:38;;;;;;;35.65;16.75;;;8.60;99.90;;;;;;5034035;28;20030;-67
2022/03/28 00:09:05;;;;;;;31.48;16.80;;;8.60;99.90;;;;;;5034897;28;20100;-63
2022/03/28 00:11:32;;;;;;;31.05;16.45;;;8.60;99.90;;;;;;5016630;28;20026;-63
2022/03/28 00:13:58;;;;;;;38.83;18.30;;;8.60;99.90;;;;;;5034883;28;20031;-63
2022/03/28 00:16:23;;;;;;;34.55;18.52;;;8.60;99.90;;;;;;5034727;28;20113;-63
2022/03/28 00:18:49;;;;;;;34.92;16.85;;;8.60;99.90;;;;;;5034961;28;20025;-62
2022/03/28 00:21:15;;;;;;;31.67;17.38;;;8.60;99.90;;;;;;5034806;28;20028;-63
2022/03/28 00:23:40;;;;;;;29.80;15.63;;;8.50;99.90;;;;;;5034591;28;20179;-63
2022/03/28 00:26:06;;;;;;;30.38;17.60;;;8.40;99.90;;;;;;5034565;28;20105;-63
2022/03/28 00:28:32;;;;;;;33.88;16.70;;;8.50;99.90;;;;;;5034711;28;20037;-64
2022/03/28 00:30:57;;;;;;;33.60;16.83;;;8.40;99.90;;;;;;5034794;28;20017;-62
2022/03/28 00:33:23;;;;;;;31.67;18.27;;;8.40;99.90;;;;;;5034135;28;20067;-63
2022/03/28 00:35:49;;;;;;;33.40;16.80;;;8.30;99.90;;;;;;5034026;28;20021;-63
2022/03/28 00:38:14;;;;;;;32.60;18.52;;;8.30;99.90;;;;;;5034359;28;20385;-63
2022/03/28 00:40:40;;;;;;;34.15;17.83;;;8.30;99.90;;;;;;5034239;28;20032;-62
2022/03/28 00:43:08;;;;;;;34.28;18.20;;;8.30;99.90;;;;;;5033993;28;20040;-63
2022/03/28 00:45:39;;;;;;;33.10;18.03;;;8.30;99.90;;;;;;5035004;28;20059;-63
2022/03/28 00:48:06;;;;;;;32.60;17.05;;;8.20;99.90;;;;;;5034250;28;20501;-63
2022/03/28 00:50:32;;;;;;;38.22;19.88;;;8.10;99.90;;;;;;5033978;28;20545;-63
2022/03/28 00:52:59;;;;;;;30.02;16.40;;;8.10;99.90;;;;;;5015918;28;20025;-63
2022/03/28 00:55:25;;;;;;;34.47;18.77;;;8.10;99.90;;;;;;5032772;28;20053;-63
2022/03/28 00:57:51;;;;;;;33.03;17.95;;;8.10;99.90;;;;;;5033677;28;20018;-63
2022/03/28 01:00:17;;;;;;;31.85;18.23;;;8.10;99.90;;;;;;5033862;28;20028;-63
2022/03/28 01:02:43;;;;;;;36.90;17.50;;;8.00;99.90;;;;;;5015800;28;20026;-63
2022/03/28 01:05:10;;;;;;;36.95;18.85;;;8.00;99.90;;;;;;5033280;28;20018;-63
2022/03/28 01:07:41;;;;;;;35.50;17.52;;;8.00;99.90;;;;;;5033756;28;20022;-63
2022/03/28 01:10:09;;;;;;;36.55;20.30;;;8.00;99.90;;;;;;5014940;28;20029;-64
2022/03/28 01:12:35;;;;;;;;;;;8.00;99.90;;;;;;5033762;28;20421;-63
2022/03/28 01:15:01;;;;;;;33.33;16.95;;;7.90;99.90;;;;;;5032212;28;19912;-62
2022/03/28 01:20:11;;;;;;;37.47;20.75;;;8.00;99.90;;;;;;5033851;28;20409;-63
2022/03/28 01:22:37;;;;;;;37.08;20.70;;;7.90;99.90;;;;;;5033488;28;20026;-63
2022/03/28 01:25:06;;;;;;;39.38;19.88;;;7.90;99.90;;;;;;5032888;28;20108;-62
2022/03/28 01:27:33;;;;;;;36.95;19.70;;;7.80;99.90;;;;;;5033051;28;20025;-63
2022/03/28 01:29:59;;;;;;;40.97;22.08;;;7.80;99.90;;;;;;5033391;28;20025;-63
2022/03/28 01:32:25;;;;;;;39.58;19.55;;;7.80;99.90;;;;;;5033522;28;20022;-63
2022/03/28 01:34:50;;;;;;;43.70;21.15;;;7.80;99.90;;;;;;5033480;28;20079;-63
2022/03/28 01:37:16;;;;;;;42.58;22.40;;;7.80;99.90;;;;;;5038466;28;20030;-64
2022/03/28 01:39:42;;;;;;;45.28;20.45;;;7.70;99.90;;;;;;5042944;28;20100;-63
2022/03/28 01:42:08;;;;;;;41.00;22.33;;;7.70;99.90;;;;;;5042556;28;20025;-64
2022/03/28 01:44:33;;;;;;;38.20;20.80;;;7.60;99.90;;;;;;5040957;28;20512;-63
2022/03/28 01:46:59;;;;;;;43.70;21.02;;;7.60;99.90;;;;;;5043838;28;20030;-64
2022/03/28 01:49:25;;;;;;;42.88;23.02;;;7.60;99.90;;;;;;5043385;28;20025;-64
2022/03/28 01:51:51;;;;;;;37.63;21.30;;;7.60;99.90;;;;;;5026159;28;20037;-64
2022/03/28 01:54:17;;;;;;;39.67;20.27;;;7.60;99.90;;;;;;5032139;28;20029;-64
2022/03/28 01:56:43;;;;;;;39.63;21.30;;;7.60;99.90;;;;;;5032508;28;20033;-66
2022/03/28 01:59:10;;;;;;;42.97;21.05;;;7.70;99.90;;;;;;5032340;28;20025;-63
2022/03/28 02:01:36;;;;;;;41.05;20.25;;;7.60;99.90;;;;;;5032530;28;20071;-64
2022/03/28 02:04:03;;;;;;;43.17;23.60;;;7.60;99.90;;;;;;5014126;28;20026;-63
2022/03/28 02:06:28;;;;;;;40.70;21.25;;;7.60;99.90;;;;;;5031696;28;20104;-64
2022/03/28 02:08:54;;;;;;;42.30;23.25;;;7.60;99.90;;;;;;5014682;28;20087;-63
2022/03/28 02:11:20;;;;;;;36.80;21.05;;;7.50;99.90;;;;;;5032176;28;20025;-65
2022/03/28 02:13:46;;;;;;;41.28;22.08;;;7.50;99.90;;;;;;5032389;28;20116;-63
2022/03/28 02:16:12;;;;;;;43.97;23.45;;;7.50;99.90;;;;;;5032482;28;20029;-63
2022/03/28 02:18:40;;;;;;;47.17;23.30;;;7.50;99.90;;;;;;5032444;28;20029;-64
2022/03/28 02:21:06;;;;;;;48.88;23.70;;;7.40;99.90;;;;;;5032475;28;20072;-63
2022/03/28 02:23:32;;;;;;;39.70;23.38;;;7.40;99.90;;;;;;5032321;28;20033;-63
2022/03/28 02:25:58;;;;;;;47.70;23.38;;;7.40;99.90;;;;;;5032263;28;20030;-64
2022/03/28 02:28:24;;;;;;;40.30;21.13;;;7.40;99.90;;;;;;5032251;28;20101;-63
2022/03/28 02:30:50;;;;;;;46.17;23.25;;;7.40;99.90;;;;;;5014156;28;20064;-63
2022/03/28 02:33:16;;;;;;;53.38;23.13;;;7.30;99.90;;;;;;5032476;28;20056;-64
2022/03/28 02:35:42;;;;;;;39.42;22.48;;;7.30;99.90;;;;;;5032034;28;20018;-64
2022/03/28 02:38:08;;;;;;;42.28;23.00;;;7.30;99.90;;;;;;5032153;28;20033;-64
2022/03/28 02:40:34;;;;;;;46.63;23.98;;;7.30;99.90;;;;;;5032174;28;20040;-64
2022/03/28 02:43:00;;;;;;;47.72;24.45;;;7.30;99.90;;;;;;5032306;28;20168;-63
2022/03/28 02:45:31;;;;;;;48.50;22.60;;;7.30;99.90;;;;;;5031951;28;20137;-63
2022/03/28 02:47:59;;;;;;;42.92;22.55;;;7.20;99.90;;;;;;5031844;28;20033;-63
2022/03/28 02:50:25;;;;;;;37.97;21.83;;;7.20;99.90;;;;;;5031491;28;20029;-63
2022/03/28 02:52:51;;;;;;;43.08;21.95;;;7.20;99.90;;;;;;5031928;28;20032;-64
2022/03/28 02:55:17;;;;;;;43.17;23.02;;;7.20;99.90;;;;;;5032074;28;20017;-64
2022/03/28 02:57:42;;;;;;;43.15;26.42;;;7.10;99.90;;;;;;5032332;28;20068;-64
2022/03/28 03:00:10;;;;;;;48.85;23.15;;;7.10;99.90;;;;;;5031936;28;20022;-63
2022/03/28 03:02:36;;;;;;;45.30;23.15;;;7.10;99.90;;;;;;5032137;28;20053;-64
2022/03/28 03:05:03;;;;;;;42.45;23.08;;;7.10;99.90;;;;;;5031977;28;20100;-63
2022/03/28 03:07:29;;;;;;;40.58;22.25;;;7.00;99.90;;;;;;5031928;28;20022;-63
2022/03/28 03:09:54;;;;;;;42.70;24.52;;;7.00;99.90;;;;;;5031596;28;20076;-63
2022/03/28 03:12:20;;;;;;;42.55;21.80;;;7.00;99.90;;;;;;5031505;28;20517;-64
2022/03/28 03:14:46;;;;;;;43.15;24.25;;;6.90;99.90;;;;;;5031856;28;20021;-63
2022/03/28 03:17:11;;;;;;;44.03;23.77;;;6.90;99.90;;;;;;5034971;28;20045;-63
2022/03/28 03:19:39;;;;;;;44.22;24.60;;;6.90;99.90;;;;;;5017930;28;20018;-63
2022/03/28 03:22:06;;;;;;;44.42;22.33;;;6.90;99.90;;;;;;5035314;28;20048;-65
2022/03/28 03:24:31;;;;;;;45.55;23.55;;;6.90;99.90;;;;;;5034976;28;20539;-63
2022/03/28 03:26:57;;;;;;;43.13;22.05;;;6.80;99.90;;;;;;5035407;28;20033;-64
2022/03/28 03:29:23;;;;;;;40.92;22.17;;;6.80;99.90;;;;;;5034685;28;20079;-63
2022/03/28 03:31:49;;;;;;;44.42;22.83;;;6.80;99.90;;;;;;5017703;28;20033;-64
2022/03/28 03:34:14;;;;;;;44.83;25.90;;;6.70;99.90;;;;;;5035444;28;20511;-64
2022/03/28 03:36:40;;;;;;;46.92;22.25;;;6.70;99.90;;;;;;5033624;28;20029;-63
2022/03/28 03:39:05;;;;;;;42.30;23.83;;;6.70;99.90;;;;;;5034711;28;20129;-64
2022/03/28 03:41:31;;;;;;;45.97;24.58;;;6.70;99.90;;;;;;5035009;28;20025;-63
2022/03/28 03:43:57;;;;;;;46.67;24.65;;;6.70;99.90;;;;;;5034840;28;20039;-64
2022/03/28 03:46:22;;;;;;;46.75;22.27;;;6.60;99.90;;;;;;5033695;28;20022;-63
2022/03/28 03:48:48;;;;;;;51.03;25.90;;;6.60;99.90;;;;;;5035289;28;20029;-63
2022/03/28 03:51:13;;;;;;;41.75;24.80;;;6.70;99.90;;;;;;5035170;28;20061;-63
2022/03/28 03:53:40;;;;;;;45.05;25.83;;;6.60;99.90;;;;;;5035340;28;20543;-63
2022/03/28 03:56:05;;;;;;;42.33;22.70;;;6.70;99.90;;;;;;5035218;28;20056;-63
2022/03/28 03:58:31;;;;;;;41.78;22.70;;;6.70;99.90;;;;;;5035340;28;20025;-63
2022/03/28 04:00:57;;;;;;;54.38;25.73;;;6.60;99.90;;;;;;5035189;28;20029;-63
2022/03/28 04:03:22;;;;;;;47.58;25.27;;;6.60;99.90;;;;;;5035052;28;20033;-64
2022/03/28 04:05:48;;;;;;;48.17;25.60;;;6.50;99.90;;;;;;5035200;28;20059;-63
2022/03/28 04:08:14;;;;;;;42.95;25.08;;;6.50;99.90;;;;;;5034706;28;20100;-63
2022/03/28 04:10:39;;;;;;;45.20;24.85;;;6.50;99.90;;;;;;5017054;28;20026;-63
2022/03/28 04:13:05;;;;;;;44.38;25.35;;;6.50;99.90;;;;;;5017393;28;20021;-63
2022/03/28 04:15:31;;;;;;;46.83;25.73;;;6.50;99.90;;;;;;5034869;28;20032;-63
2022/03/28 04:17:56;;;;;;;46.92;27.65;;;6.50;99.90;;;;;;5034791;28;20097;-63
2022/03/28 04:20:22;;;;;;;47.15;26.50;;;6.40;99.90;;;;;;5033148;28;20032;-63
2022/03/28 04:22:48;;;;;;;50.35;26.63;;;6.40;99.90;;;;;;5034510;28;20040;-63
2022/03/28 04:25:14;;;;;;;47.83;26.90;;;6.40;99.90;;;;;;5034501;28;20482;-63
2022/03/28 04:27:40;;;;;;;47.20;25.92;;;6.40;99.90;;;;;;5032586;28;20033;-63
2022/03/28 04:30:09;;;;;;;46.92;24.20;;;6.50;99.90;;;;;;5034534;28;20023;-62
2022/03/28 04:32:36;;;;;;;46.63;26.60;;;6.50;99.90;;;;;;5034501;28;20029;-63
2022/03/28 04:35:04;;;;;;;55.08;28.73;;;6.50;99.90;;;;;;5034887;28;20394;-63
2022/03/28 04:37:37;;;;;;;51.90;27.08;;;6.50;99.90;;;;;;5034663;28;20043;-63
2022/03/28 04:40:05;;;;;;;43.50;25.20;;;6.40;99.90;;;;;;5034333;28;20030;-63
2022/03/28 04:42:32;;;;;;;48.03;26.02;;;6.30;99.90;;;;;;5034281;28;20039;-63
2022/03/28 04:44:58;;;;;;;47.83;23.95;;;6.40;99.90;;;;;;5034371;28;20025;-64
2022/03/28 04:47:23;;;;;;;46.90;25.63;;;6.40;99.90;;;;;;5034281;28;20029;-64
2022/03/28 04:49:49;;;;;;;47.58;27.02;;;6.30;99.90;;;;;;5034124;28;20036;-64
2022/03/28 04:52:14;;;;;;;48.20;26.83;;;6.30;99.90;;;;;;5033718;28;20022;-63
2022/03/28 04:54:40;;;;;;;52.40;26.23;;;6.40;99.90;;;;;;5034379;28;20543;-64
2022/03/28 04:57:06;;;;;;;45.45;24.88;;;6.50;99.90;;;;;;5034737;28;20022;-65
2022/03/28 04:59:32;;;;;;;50.33;26.13;;;6.40;99.90;;;;;;5034060;28;20022;-64
2022/03/28 05:01:58;;;;;;;49.50;26.58;;;6.40;99.90;;;;;;5033635;28;20021;-66
2022/03/28 05:04:24;;;;;;;53.85;27.08;;;6.40;99.90;;;;;;5034275;28;20029;-64
2022/03/28 05:06:50;;;;;;;47.08;27.90;;;6.30;99.90;;;;;;5034083;28;20017;-62
2022/03/28 05:09:15;;;;;;;49.03;25.13;;;6.30;99.90;;;;;;5033867;28;20029;-65
2022/03/28 05:11:41;;;;;;;50.13;26.67;;;6.20;99.90;;;;;;5033592;28;20029;-64
2022/03/28 05:14:07;;;;;;;47.35;25.88;;;6.20;99.90;;;;;;5033642;28;20602;-64
2022/03/28 05:16:33;;;;;;;48.10;25.85;;;6.10;99.90;;;;;;5033603;28;20029;-64
2022/03/28 05:18:59;;;;;;;49.15;24.10;;;6.00;99.90;;;;;;5033758;28;20115;-65
2022/03/28 05:21:24;;;;;;;48.22;26.00;;;6.00;99.90;;;;;;5033444;28;20025;-64
2022/03/28 05:23:50;;;;;;;46.33;25.42;;;6.00;99.90;;;;;;5033448;28;20064;-64
2022/03/28 05:26:15;;;;;;;43.38;24.98;;;6.00;99.90;;;;;;5033553;28;20021;-64
2022/03/28 05:28:41;;;;;;;40.65;22.48;;;5.90;99.90;;;;;;5033095;28;20492;-65
2022/03/28 05:31:07;;;;;;;43.63;22.88;;;5.90;99.90;;;;;;5032708;28;20026;-63
2022/03/28 05:33:33;;;;;;;41.63;23.38;;;5.80;99.90;;;;;;5032986;28;20029;-62
2022/03/28 05:35:59;;;;;;;51.70;23.90;;;5.90;99.90;;;;;;5033129;28;20014;-63
2022/03/28 05:38:25;;;;;;;45.15;23.52;;;5.90;99.90;;;;;;5032720;28;20037;-63
2022/03/28 05:40:51;;;;;;;50.95;30.13;;;5.90;99.90;;;;;;5033086;28;20486;-65
2022/03/28 05:43:17;;;;;;;94.18;57.38;;;5.80;99.90;;;;;;5032696;28;20140;-64
2022/03/28 05:45:43;;;;;;;41.47;24.95;;;5.80;99.90;;;;;;5032639;28;20049;-64
2022/03/28 05:48:09;;;;;;;44.45;23.05;;;5.90;99.90;;;;;;5032534;28;20025;-64
2022/03/28 05:50:34;;;;;;;48.05;23.25;;;5.90;99.90;;;;;;5030921;28;20087;-63
2022/03/28 05:53:00;;;;;;;42.17;22.27;;;6.00;99.90;;;;;;5032410;28;20441;-64
2022/03/28 05:55:26;;;;;;;40.75;22.35;;;6.00;99.90;;;;;;5032507;28;20390;-63
2022/03/28 05:57:51;;;;;;;37.97;22.98;;;6.00;99.90;;;;;;5031968;28;20047;-65
2022/03/28 06:00:17;;;;;;;36.92;21.20;;;6.00;99.90;;;;;;5014752;28;20043;-64
2022/03/28 06:02:43;;;;;;;43.58;20.63;;;6.00;99.90;;;;;;5032092;28;20141;-66
2022/03/28 06:05:09;;;;;;;44.97;20.67;;;5.90;99.90;;;;;;5032713;28;20028;-66
2022/03/28 06:07:35;;;;;;;38.55;19.55;;;6.00;99.90;;;;;;5032377;28;20021;-66
2022/03/28 06:10:02;;;;;;;40.10;20.38;;;6.00;99.90;;;;;;5032130;28;20155;-66
2022/03/28 06:12:28;;;;;;;36.28;20.08;;;6.10;99.90;;;;;;5032019;28;20028;-66
2022/03/28 06:14:54;;;;;;;57.05;23.48;;;6.10;99.90;;;;;;5032316;28;20025;-65
2022/03/28 06:17:26;;;;;;;55.97;20.58;;;6.10;99.90;;;;;;5031703;28;20112;-65
2022/03/28 06:19:52;;;;;;;51.75;20.58;;;6.20;99.90;;;;;;5036139;28;20013;-65
2022/03/28 06:22:18;;;;;;;46.83;21.63;;;6.20;99.90;;;;;;5044492;28;20342;-65
2022/03/28 06:24:45;;;;;;;49.47;19.77;;;6.30;99.90;;;;;;5050924;28;20025;-66
2022/03/28 06:27:10;;;;;;;43.42;17.83;;;6.30;99.90;;;;;;5033523;28;20025;-66
2022/03/28 06:29:36;;;;;;;34.17;16.88;;;6.40;99.90;;;;;;5052402;28;20027;-66
2022/03/28 06:32:03;;;;;;;35.17;16.02;;;6.40;99.90;;;;;;5052230;28;20029;-66
2022/03/28 06:34:28;;;;;;;33.25;16.88;;;6.50;99.90;;;;;;5052420;28;20028;-66
2022/03/28 06:36:54;;;;;;;32.20;15.02;;;6.60;99.90;;;;;;5052244;28;20025;-65
2022/03/28 06:39:20;;;;;;;33.80;16.33;;;6.60;99.90;;;;;;5052486;28;20029;-66
2022/03/28 06:41:45;;;;;;;33.95;16.50;;;6.70;99.90;;;;;;5052062;28;20040;-66
2022/03/28 06:44:14;;;;;;;36.67;17.17;;;6.80;99.90;;;;;;5051649;28;20072;-64
2022/03/28 06:46:40;;;;;;;37.70;16.85;;;6.90;99.90;;;;;;5052934;28;20036;-64
2022/03/28 06:49:06;;;;;;;30.23;16.23;;;6.90;99.90;;;;;;5051436;28;20155;-65
2022/03/28 06:51:33;;;;;;;28.17;15.60;;;7.00;99.90;;;;;;5053938;28;20032;-66
2022/03/28 06:53:58;;;;;;;28.10;14.45;;;7.10;99.90;;;;;;5027903;28;20504;-66
2022/03/28 06:56:24;;;;;;;34.75;18.95;;;7.10;99.90;;;;;;5035892;28;20038;-66
2022/03/28 06:58:50;;;;;;;30.52;15.88;;;7.10;99.90;;;;;;5037387;28;20025;-67
2022/03/28 07:01:16;;;;;;;30.17;15.57;;;7.20;99.90;;;;;;5036915;28;20433;-67
2022/03/28 07:03:41;;;;;;;33.70;15.82;;;7.20;99.90;;;;;;5035651;28;20071;-66
2022/03/28 07:06:09;;;;;;;32.88;14.73;;;7.30;99.90;;;;;;5035361;28;20060;-66
2022/03/28 07:08:35;;;;;;;31.73;15.23;;;7.30;99.90;;;;;;5035625;28;20486;-66
2022/03/28 07:11:02;;;;;;;29.98;14.32;;;7.40;99.90;;;;;;5018172;28;20033;-66
2022/03/28 07:13:28;;;;;;;28.73;15.38;;;7.50;99.90;;;;;;5036547;28;20017;-66
2022/03/28 07:15:53;;;;;;;31.63;16.13;;;7.50;99.90;;;;;;5035628;28;20075;-66
2022/03/28 07:18:19;;;;;;;31.85;16.08;;;7.50;99.90;;;;;;5035652;28;20022;-67
2022/03/28 07:20:46;;;;;;;33.25;15.95;;;7.70;99.90;;;;;;5041896;28;20036;-65
2022/03/28 07:23:13;;;;;;;26.48;14.65;;;7.80;99.90;;;;;;5055357;28;20040;-65
2022/03/28 07:25:38;;;;;;;31.65;15.05;;;7.90;99.90;;;;;;5055347;28;20043;-66
2022/03/28 07:28:09;;;;;;;33.13;16.25;;;7.90;99.90;;;;;;5055868;28;20533;-64
2022/03/28 07:30:35;;;;;;;37.92;16.50;;;8.00;99.90;;;;;;5054920;28;20079;-65
2022/03/28 07:33:02;;;;;;;30.90;15.15;;;8.00;99.90;;;;;;5054868;28;20025;-66
2022/03/28 07:35:29;;;;;;;37.33;16.67;;;8.00;99.90;;;;;;5054748;28;20508;-65
2022/03/28 07:37:55;;;;;;;36.40;15.65;;;8.00;99.90;;;;;;5055740;28;20512;-64
2022/03/28 07:40:20;;;;;;;31.67;14.45;;;8.10;99.90;;;;;;5037615;28;20025;-66
2022/03/28 07:42:46;;;;;;;30.08;14.77;;;8.10;99.90;;;;;;5037608;28;20033;-66
2022/03/28 07:45:14;;;;;;;30.30;14.63;;;8.20;99.90;;;;;;5055579;28;20075;-66
2022/03/28 07:47:40;;;;;;;32.67;14.25;;;8.30;99.90;;;;;;5055648;28;20013;-65
2022/03/28 07:50:06;;;;;;;31.02;13.65;;;8.30;99.90;;;;;;5037058;28;20021;-67
2022/03/28 07:52:32;;;;;;;34.35;14.05;;;8.30;99.90;;;;;;5034800;28;20045;-66
2022/03/28 07:55:00;;;;;;;28.13;14.02;;;8.30;99.90;;;;;;5017300;28;20500;-67
2022/03/28 07:57:26;;;;;;;29.83;14.90;;;8.40;99.90;;;;;;5035119;28;20025;-67
2022/03/28 07:59:52;;;;;;;27.42;14.90;;;8.40;99.90;;;;;;5017105;28;20489;-67
2022/03/28 08:02:18;;;;;;;32.42;16.13;;;8.50;99.90;;;;;;5033361;28;20494;-67
2022/03/28 08:04:44;;;;;;;31.75;14.02;;;8.50;99.90;;;;;;5016937;28;20080;-64
2022/03/28 08:07:11;;;;;;;28.20;13.98;;;8.60;99.90;;;;;;5034899;28;20030;-65
2022/03/28 08:09:38;;;;;;;35.45;15.80;;;8.60;99.90;;;;;;5034158;28;20036;-66
2022/03/28 08:12:05;;;;;;;29.88;14.77;;;8.60;99.90;;;;;;5034550;28;20423;-66
2022/03/28 08:14:31;;;;;;;33.33;14.40;;;8.60;99.90;;;;;;5034526;28;20026;-65
2022/03/28 08:16:58;;;;;;;30.33;15.15;;;8.70;99.90;;;;;;5017343;28;20486;-66
2022/03/28 08:19:24;;;;;;;30.10;16.15;;;8.80;99.90;;;;;;5034838;28;20021;-66
2022/03/28 08:21:50;;;;;;;29.02;13.77;;;8.90;99.90;;;;;;5047738;28;20109;-65
2022/03/28 08:24:15;;;;;;;31.63;14.40;;;8.90;99.90;;;;;;5037126;28;20215;-65
2022/03/28 08:26:41;;;;;;;31.95;14.60;;;9.00;99.90;;;;;;5054785;28;20504;-65
2022/03/28 08:29:07;;;;;;;30.35;14.77;;;8.90;99.90;;;;;;5036931;28;20051;-65
2022/03/28 08:31:33;;;;;;;34.90;14.65;;;9.00;99.90;;;;;;5036656;28;20043;-65
2022/03/28 08:33:59;;;;;;;29.83;14.52;;;9.00;99.90;;;;;;5053976;28;20060;-62
2022/03/28 08:36:25;;;;;;;32.92;16.35;;;9.10;99.90;;;;;;5038186;28;20053;-63
2022/03/28 08:38:50;;;;;;;27.95;14.98;;;9.30;99.90;;;;;;5026599;28;20083;-64
2022/03/28 08:41:18;;;;;;;26.00;14.63;;;9.30;99.90;;;;;;5039509;28;20550;-63
2022/03/28 08:43:45;;;;;;;29.10;15.38;;;9.30;99.90;;;;;;5033697;28;20044;-62
2022/03/28 08:46:15;;;;;;;30.15;14.85;;;9.50;99.90;;;;;;5033832;28;20069;-63
2022/03/28 08:48:41;;;;;;;27.60;14.40;;;9.50;99.90;;;;;;5015716;28;20481;-63
2022/03/28 08:51:12;;;;;;;31.48;16.25;;;9.50;99.90;;;;;;5033526;28;20021;-62
2022/03/28 08:53:39;;;;;;;25.58;14.30;;;9.60;99.90;;;;;;5034096;28;20021;-63
2022/03/28 08:56:07;;;;;;;26.48;14.82;;;9.60;99.90;;;;;;5016022;28;20097;-63
2022/03/28 08:58:33;;;;;;;26.95;16.08;;;9.60;99.90;;;;;;5017314;28;20711;-63
2022/03/28 09:01:00;;;;;;;25.40;15.00;;;9.60;99.90;;;;;;5040202;28;20041;-63
2022/03/28 09:03:36;;;;;;;27.73;15.23;;;9.70;99.90;;;;;;5020249;28;20108;-63
2022/03/28 09:06:36;;;;;;;31.90;15.68;;;9.80;99.90;;;;;;5033507;28;20089;-64
2022/03/28 09:09:16;;;;;;;27.92;13.98;;;9.90;99.90;;;;;;5041436;28;20025;-63
2022/03/28 09:11:47;;;;;;;28.05;14.82;;;9.80;99.90;;;;;;5044484;28;20087;-63
2022/03/28 09:14:23;;;;;;;29.70;14.65;;;9.90;99.90;;;;;;5041183;28;20025;-63
2022/03/28 09:16:58;;;;;;;25.17;15.40;;;10.00;99.90;;;;;;5045662;28;20040;-64
2022/03/28 09:19:23;;;;;;;26.13;15.13;;;10.00;99.90;;;;;;5026080;28;20040;-63
2022/03/28 09:21:52;;;;;;;26.75;14.73;;;10.10;99.90;;;;;;5051424;28;20025;-64
2022/03/28 09:24:17;;;;;;;;;;;10.30;99.90;;;;;;5053481;28;20033;-60
2022/03/28 09:26:43;;;;;;;28.65;15.07;;;10.20;99.90;;;;;;5068585;28;20284;-61
2022/03/28 09:29:09;;;;;;;26.90;14.77;;;10.30;99.90;;;;;;5053261;28;20059;-66
2022/03/28 09:31:38;;;;;;;29.70;15.02;;;10.40;99.90;;;;;;5053821;28;20462;-65
2022/03/28 09:34:08;;;;;;;46.97;32.28;;;10.50;99.90;;;;;;5047255;28;20036;-66
2022/03/28 09:36:39;;;;;;;29.10;17.23;;;10.60;99.90;;;;;;5026172;28;20037;-63
2022/03/28 09:39:07;;;;;;;29.08;15.35;;;10.60;99.90;;;;;;5041420;28;20207;-65
2022/03/28 09:41:33;;;;;;;24.75;15.13;;;10.70;99.90;;;;;;5029388;28;20537;-62
2022/03/28 09:43:58;;;;;;;27.70;15.25;;;10.80;99.90;;;;;;5024411;28;20056;-61
2022/03/28 09:46:25;;;;;;;27.92;17.13;;;10.90;99.90;;;;;;5044664;28;20135;-62
2022/03/28 09:48:51;;;;;;;30.05;16.63;;;11.10;99.90;;;;;;5020156;28;20032;-60
2022/03/28 09:51:18;;;;;;;26.25;15.43;;;11.10;99.90;;;;;;5043279;28;20021;-53
2022/03/28 09:53:44;;;;;;;27.98;15.68;;;11.30;99.90;;;;;;5046002;28;20162;-60
2022/03/28 09:56:11;;;;;;;27.88;15.25;;;11.40;99.90;;;;;;5038788;28;20400;-62
2022/03/28 09:58:37;;;;;;;26.17;14.80;;;11.40;99.90;;;;;;5035602;28;20017;-64
2022/03/28 10:01:11;;;;;;;28.48;15.93;;;11.20;99.90;;;;;;5043292;28;20095;-59
2022/03/28 10:03:38;;;;;;;29.45;16.23;;;11.20;99.90;;;;;;5026904;28;20029;-64
2022/03/28 10:06:06;;;;;;;28.48;16.05;;;11.10;99.90;;;;;;5040506;28;20367;-59
2022/03/28 10:08:32;;;;;;;29.85;16.08;;;11.20;99.90;;;;;;5039411;28;20013;-64
2022/03/28 10:10:59;;;;;;;29.35;15.30;;;11.30;99.90;;;;;;5042016;28;20112;-63
2022/03/28 10:13:25;;;;;;;28.15;15.65;;;11.30;99.90;;;;;;5020452;28;20055;-63
2022/03/28 10:15:51;;;;;;;31.30;15.68;;;11.30;99.90;;;;;;5042877;28;20112;-57
2022/03/28 10:18:17;;;;;;;30.15;16.95;;;11.50;99.90;;;;;;5040198;28;20018;-57
2022/03/28 10:20:45;;;;;;;33.38;17.63;;;11.60;99.90;;;;;;5025681;28;20361;-62
2022/03/28 10:23:16;;;;;;;32.80;17.42;;;11.60;99.90;;;;;;5048976;28;20025;-61
2022/03/28 10:25:42;;;;;;;30.50;19.08;;;11.80;99.90;;;;;;5033487;28;20493;-64
2022/03/28 10:28:09;;;;;;;31.08;17.27;;;11.90;99.90;;;;;;5050043;28;20434;-63
2022/03/28 10:30:35;;;;;;;27.90;17.10;;;12.10;99.90;;;;;;5033184;28;20037;-62
2022/03/28 10:33:21;;;;;;;31.63;17.65;;;12.10;99.90;;;;;;5051864;28;20386;-65
2022/03/28 10:36:23;;;;;;;28.33;16.85;;;12.30;99.90;;;;;;5052064;28;20052;-63
2022/03/28 10:38:51;;;;;;;30.40;17.90;;;12.40;99.90;;;;;;5052088;28;20029;-64
2022/03/28 10:41:19;;;;;;;27.85;16.50;;;12.50;99.90;;;;;;5052091;28;20032;-64
2022/03/28 10:43:45;;;;;;;28.73;16.77;;;12.50;99.90;;;;;;5051983;28;20068;-66
2022/03/28 10:46:13;;;;;;;29.17;17.25;;;12.60;99.90;;;;;;5052261;28;20114;-65
2022/03/28 10:48:50;;;;;;;28.45;17.00;;;12.70;99.90;;;;;;5052119;28;20025;-65
2022/03/28 10:51:29;;;;;;;27.75;15.93;;;12.80;99.90;;;;;;5051303;28;20032;-65
2022/03/28 10:53:58;;;;;;;27.38;16.02;;;13.00;99.90;;;;;;5052039;28;20021;-66
2022/03/28 10:56:30;;;;;;;32.00;16.95;;;12.90;99.90;;;;;;5052454;28;20104;-65
2022/03/28 10:58:58;;;;;;;28.92;16.50;;;12.70;99.90;;;;;;5051847;28;20025;-66
2022/03/28 11:01:42;;;;;;;28.88;16.70;;;13.00;99.90;;;;;;5033926;28;20022;-66
2022/03/28 11:04:16;;;;;;;29.33;17.83;;;13.20;99.90;;;;;;5050925;28;20029;-66
2022/03/28 11:06:55;;;;;;;29.58;16.65;;;13.30;99.90;;;;;;5033844;28;20103;-65
2022/03/28 11:09:37;;;;;;;27.33;15.32;;;13.40;99.90;;;;;;5051386;28;20036;-66
2022/03/28 11:12:09;;;;;;;28.27;17.30;;;13.50;99.90;;;;;;5051465;28;20113;-66
2022/03/28 11:14:51;;;;;;;28.45;16.70;;;14.10;99.90;;;;;;5051992;28;20108;-67
2022/03/28 11:17:21;;;;;;;30.35;18.25;;;15.20;99.90;;;;;;5052761;28;20036;-66
2022/03/28 11:20:12;;;;;;;27.70;17.90;;;16.20;99.90;;;;;;5052224;28;20108;-66
2022/03/28 11:22:48;;;;;;;31.38;17.02;;;16.60;99.90;;;;;;5051907;28;20095;-64
2022/03/28 11:25:46;;;;;;;29.98;16.17;;;17.30;99.50;;;;;;5051787;28;20024;-68
2022/03/28 11:28:24;;;;;;;36.97;23.02;;;17.30;98.10;;;;;;5052832;28;20044;-66
2022/03/28 11:31:06;;;;;;;25.15;17.55;;;17.70;96.20;;;;;;5051104;28;20065;-66
2022/03/28 11:33:34;;;;;;;28.38;18.70;;;18.00;95.70;;;;;;5051047;28;20029;-66
2022/03/28 11:36:02;;;;;;;28.52;17.65;;;18.90;94.00;;;;;;5033654;28;20025;-68
2022/03/28 11:38:35;;;;;;;32.70;20.08;;;19.50;93.40;;;;;;5037873;28;20504;-66
2022/03/28 11:41:02;;;;;;;32.60;20.90;;;19.70;91.90;;;;;;5055468;28;20082;-67
2022/03/28 11:43:39;;;;;;;29.45;20.33;;;20.00;92.00;;;;;;5055232;28;20524;-67
2022/03/28 11:46:26;;;;;;;32.50;20.85;;;20.20;90.50;;;;;;5055399;28;20099;-67
2022/03/28 11:49:07;;;;;;;33.33;21.13;;;20.10;90.00;;;;;;5055649;28;20029;-66
2022/03/28 11:51:38;;;;;;;29.17;19.58;;;20.70;86.70;;;;;;5039228;28;20426;-67
2022/03/28 11:54:08;;;;;;;28.30;20.85;;;20.30;87.10;;;;;;5075383;28;20078;-66
2022/03/28 11:58:14;;;;;;;29.40;20.08;;;20.60;84.80;;;;;;5064915;28;20029;-66
2022/03/28 11:59:21;;;;;;;28.08;19.70;;;20.80;84.10;;;;;;5040901;28;20551;-66
2022/03/28 12:01:49;;;;;;;31.08;20.80;;;21.10;82.60;;;;;;5034962;28;20033;-68
2022/03/28 12:04:18;;;;;;;31.98;21.33;;;21.30;81.60;;;;;;5037918;28;20037;-66
2022/03/28 12:06:43;;;;;;;30.77;21.45;;;21.50;80.10;;;;;;4677040;28;9999653;-65
2022/03/28 12:09:15;;;;;;;27.65;19.00;;;21.30;80.60;;;;;;5048681;28;20024;-66
2022/03/28 12:11:48;;;;;;;27.33;19.33;;;21.20;79.90;;;;;;5043425;28;20037;-65
2022/03/28 12:14:14;;;;;;;31.42;21.25;;;21.50;78.30;;;;;;5032441;28;20102;-65
2022/03/28 12:16:53;;;;;;;27.17;20.08;;;21.70;78.10;;;;;;5037211;28;20053;-66
2022/03/28 12:19:23;;;;;;;31.73;21.85;;;21.90;78.40;;;;;;5044969;28;20489;-67
2022/03/28 12:21:50;;;;;;;33.60;22.33;;;22.30;75.80;;;;;;5045989;28;20029;-66
2022/03/28 12:24:16;;;;;;;33.00;23.40;;;22.90;75.90;;;;;;5042336;28;20025;-66
2022/03/28 12:26:46;;;;;;;30.33;22.00;;;23.50;73.00;;;;;;5043664;28;20028;-67
2022/03/28 12:29:12;;;;;;;31.88;23.38;;;23.50;72.40;;;;;;5039892;28;20032;-66
2022/03/28 12:31:45;;;;;;;32.00;22.80;;;23.40;70.80;;;;;;5019429;28;20056;-66
2022/03/28 12:34:12;;;;;;;35.20;24.45;;;24.10;70.60;;;;;;5032467;28;20025;-67
2022/03/28 12:36:38;;;;;;;37.72;23.90;;;24.10;69.20;;;;;;5032659;28;20022;-66
2022/03/28 12:39:10;;;;;;;34.92;23.75;;;23.90;68.60;;;;;;5032382;28;20037;-64
2022/03/28 12:41:56;;;;;;;34.25;26.20;;;24.10;68.10;;;;;;5033381;28;20107;-66